Time;durP1;ratioP1;P1;durP2;ratioP2;P2;SDS_P1;SDS_P2;PMS_P1;PMS_P2;Temp;Humidity;BMP_temperature;BMP_pressure;BME280_temperature;BME280_humidity;BME280_pressure;Samples;Min_cycle;Max_cycle;Signal;HPM_P1;HPM_P2
2022/01/05 00:02:48;;;;;;;2.00;1.20;;;;;;;6.14;82.50;98181.81;10530585;28;20047;-71
2022/01/05 00:07:50;;;;;;;2.50;1.30;;;;;;;6.22;82.06;98177.13;10546481;28;20036;-70
2022/01/05 00:12:52;;;;;;;1.27;1.10;;;;;;;6.28;81.70;98159.41;10546394;28;20047;-72
2022/01/05 00:17:57;;;;;;;1.10;1.00;;;;;;;6.20;82.83;98177.19;10513922;28;20055;-71
2022/01/05 00:23:01;;;;;;;2.92;1.20;;;;;;;6.16;82.90;98169.56;10514458;28;20044;-72
2022/01/05 00:28:03;;;;;;;1.08;0.80;;;;;;;6.20;82.74;98168.53;10545470;28;20072;-72
2022/01/05 00:33:05;;;;;;;1.13;0.70;;;;;;;6.17;82.84;98171.25;10544397;28;20047;-71
2022/01/05 00:38:06;;;;;;;1.02;0.80;;;;;;;6.11;83.68;98166.28;10527036;28;20052;-72
2022/01/05 00:43:08;;;;;;;0.73;0.55;;;;;;;6.06;84.00;98185.63;10546183;28;20124;-72
2022/01/05 00:48:09;;;;;;;1.58;0.77;;;;;;;6.00;84.48;98174.59;10510373;28;20051;-72
2022/01/05 00:53:11;;;;;;;1.42;0.57;;;;;;;6.00;85.12;98154.56;10525134;28;20044;-72
2022/01/05 00:58:12;;;;;;;0.95;0.52;;;;;;;5.91;85.44;98169.75;10544181;28;20040;-71
2022/01/05 01:03:14;;;;;;;1.00;0.60;;;;;;;5.85;86.45;98173.47;10527254;28;20040;-72
2022/01/05 01:08:16;;;;;;;0.70;0.60;;;;;;;5.91;86.29;98159.31;10547872;28;20052;-72
2022/01/05 01:13:18;;;;;;;1.02;0.60;;;;;;;5.97;85.44;98159.91;10544693;28;20066;-71
2022/01/05 01:18:20;;;;;;;0.50;0.50;;;;;;;5.66;88.27;98178.56;10525398;28;20048;-72
2022/01/05 01:23:23;;;;;;;0.50;0.50;;;;;;;5.68;89.17;98175.94;10543523;28;20048;-72
2022/01/05 01:28:25;;;;;;;0.73;0.57;;;;;;;5.71;88.29;98154.91;10546422;28;20040;-72
2022/01/05 01:33:27;;;;;;;0.95;0.70;;;;;;;5.77;87.44;98134.66;10544529;28;20088;-71
2022/01/05 01:38:29;;;;;;;0.90;0.68;;;;;;;5.67;88.35;98128.16;10526228;28;20055;-72
2022/01/05 01:43:30;;;;;;;1.33;0.60;;;;;;;5.66;87.89;98126.44;10526338;28;20037;-70
2022/01/05 01:48:32;;;;;;;1.00;0.60;;;;;;;5.71;87.90;98141.88;10527725;28;20089;-71
2022/01/05 01:53:34;;;;;;;1.42;0.60;;;;;;;5.61;88.18;98145.81;10542619;28;20036;-71
2022/01/05 01:58:36;;;;;;;1.25;0.60;;;;;;;5.59;88.37;98138.06;10542569;28;20093;-71
2022/01/05 02:03:37;;;;;;;0.80;0.60;;;;;;;5.81;86.92;98138.84;10524336;28;20052;-71
2022/01/05 02:08:39;;;;;;;0.60;0.40;;;;;;;5.56;88.95;98139.03;10550028;28;20048;-71
2022/01/05 02:13:41;;;;;;;1.08;0.55;;;;;;;5.60;89.04;98129.31;10552471;28;20044;-72
2022/01/05 02:23:44;;;;;;;0.85;0.68;;;;;;;5.48;90.40;98132.44;10550350;28;20052;-71
2022/01/05 02:28:46;;;;;;;0.57;0.55;;;;;;;5.48;90.61;98130.66;10532575;28;20093;-71
2022/01/05 02:33:48;;;;;;;0.77;0.57;;;;;;;5.49;90.58;98136.72;10534599;28;20048;-71
2022/01/05 02:38:52;;;;;;;0.80;0.75;;;;;;;5.49;91.09;98137.59;10531181;28;20040;-71
2022/01/05 02:43:53;;;;;;;0.50;0.50;;;;;;;5.63;90.06;98131.81;10549487;28;20153;-70
2022/01/05 02:48:55;;;;;;;0.52;0.50;;;;;;;5.68;89.25;98113.38;10548749;28;20459;-72
2022/01/05 02:53:56;;;;;;;0.77;0.77;;;;;;;5.67;88.84;98128.16;10549547;28;20048;-71
2022/01/05 02:58:58;;;;;;;0.60;0.50;;;;;;;5.56;90.49;98117.31;10548766;28;20489;-71
2022/01/05 03:04:00;;;;;;;0.40;0.30;;;;;;;5.45;90.75;98107.38;10549703;28;20123;-71
2022/01/05 03:09:01;;;;;;;1.10;0.47;;;;;;;5.76;87.86;98098.25;10548094;28;20141;-72
2022/01/05 03:14:03;;;;;;;0.73;0.35;;;;;;;5.55;89.55;98098.25;10511430;28;20048;-71
2022/01/05 03:19:05;;;;;;;0.22;0.22;;;;;;;5.53;89.03;98100.06;10546769;28;20054;-71
2022/01/05 03:24:07;;;;;;;0.40;0.20;;;;;;;5.53;88.64;98115.72;10548717;28;20043;-71
2022/01/05 03:29:08;;;;;;;0.20;0.20;;;;;;;5.72;87.76;98097.53;10527874;28;20176;-71
2022/01/05 03:34:18;;;;;;;0.20;0.20;;;;;;;5.66;87.11;98089.94;10545904;28;20040;-71
2022/01/05 03:39:20;;;;;;;0.30;0.20;;;;;;;5.50;87.87;98091.53;10547264;28;20489;-71
2022/01/05 03:44:22;;;;;;;0.30;0.30;;;;;;;5.52;87.96;98085.34;10546057;28;20039;-71
2022/01/05 03:49:24;;;;;;;0.30;0.22;;;;;;;5.43;89.13;98084.88;10546406;28;20133;-72
2022/01/05 03:54:25;;;;;;;0.85;0.30;;;;;;;5.50;87.97;98092.38;10546587;28;20050;-72
2022/01/05 03:59:27;;;;;;;0.28;0.20;;;;;;;5.71;86.15;98081.94;10546701;28;20123;-70
2022/01/05 04:04:28;;;;;;;0.20;0.20;;;;;;;5.49;87.26;98100.25;10526359;28;20056;-71
2022/01/05 04:09:30;;;;;;;0.20;0.20;;;;;;;5.69;84.75;98102.03;10543987;28;20048;-70
2022/01/05 04:14:32;;;;;;;0.30;0.17;;;;;;;5.60;85.51;98092.84;10544267;28;20109;-71
2022/01/05 04:19:37;;;;;;;0.17;0.15;;;;;;;5.61;84.09;98110.16;10545684;28;20056;-71
2022/01/05 04:24:39;;;;;;;0.20;0.10;;;;;;;5.85;81.35;98113.50;10547924;28;20054;-71
2022/01/05 04:29:42;;;;;;;0.13;0.10;;;;;;;5.85;81.13;98110.88;10543636;28;20044;-71
2022/01/05 04:34:45;;;;;;;0.90;0.10;;;;;;;5.77;82.09;98098.16;10544076;28;20048;-72
2022/01/05 04:40:11;;;;;;;0.10;0.10;;;;;;;5.89;81.61;98093.31;10543597;28;20036;-71
2022/01/05 04:45:13;;;;;;;0.15;0.10;;;;;;;5.89;80.29;98083.75;10545281;28;20089;-72
2022/01/05 04:50:15;;;;;;;0.10;0.10;;;;;;;5.84;80.35;98088.31;10542579;28;20062;-71
2022/01/05 04:55:17;;;;;;;0.00;0.00;;;;;;;5.84;80.08;98106.56;10477098;22;20100;-73
2022/01/05 05:00:19;;;;;;;0.57;0.10;;;;;;;5.86;80.17;98102.13;10462152;28;20413;-73
2022/01/05 05:05:23;;;;;;;0.10;0.10;;;;;;;5.86;80.29;98109.97;10462296;28;20048;-73
2022/01/05 05:10:25;;;;;;;0.10;0.10;;;;;;;5.86;79.52;98104.75;10444399;28;20521;-72
2022/01/05 05:15:26;;;;;;;0.10;0.10;;;;;;;5.87;79.47;98110.81;10442853;28;20059;-73
2022/01/05 05:20:28;;;;;;;0.22;0.10;;;;;;;5.76;81.13;98119.94;10442284;28;20140;-72
2022/01/05 05:25:30;;;;;;;1.10;0.73;;;;;;;5.27;83.98;98165.44;10444627;28;20112;-72
2022/01/05 05:30:33;;;;;;;1.35;1.20;;;;;;;4.29;87.91;98171.75;10446920;28;20076;-72
2022/01/05 05:35:34;;;;;;;1.65;1.38;;;;;;;3.60;92.70;98191.50;10463903;28;20561;-72
2022/01/05 05:40:36;;;;;;;1.85;1.50;;;;;;;3.36;94.43;98190.56;10447994;28;20045;-72
2022/01/05 05:45:38;;;;;;;1.50;0.80;;;;;;;3.10;93.83;98192.25;10451918;28;20044;-74
2022/01/05 05:50:40;;;;;;;1.80;0.77;;;;;;;2.81;95.29;98202.66;10468941;28;20102;-74
2022/01/05 05:55:42;;;;;;;0.98;0.70;;;;;;;2.70;95.82;98205.53;10451485;28;20080;-74
2022/01/05 06:00:44;;;;;;;2.58;0.90;;;;;;;2.41;96.98;98216.78;10451451;28;20099;-74
2022/01/05 06:05:46;;;;;;;2.75;2.47;;;;;;;2.62;97.11;98228.28;10471380;28;20133;-73
2022/01/05 06:10:48;;;;;;;1.50;1.17;;;;;;;2.46;96.40;98235.63;10477295;28;20068;-73
2022/01/05 06:15:49;;;;;;;0.85;0.85;;;;;;;2.50;96.74;98243.28;10477599;28;20041;-74
2022/01/05 06:20:51;;;;;;;1.17;0.90;;;;;;;2.39;96.84;98245.34;10475922;28;20047;-72
2022/01/05 06:25:53;;;;;;;3.53;1.60;;;;;;;2.42;97.27;98253.03;10437102;28;20143;-72
2022/01/05 06:30:55;;;;;;;3.95;3.65;;;;;;;2.31;97.15;98291.38;10473752;28;20138;-72
2022/01/05 06:35:56;;;;;;;2.97;2.60;;;;;;;2.18;97.46;98303.78;10457029;28;20092;-72
2022/01/05 06:40:58;;;;;;;5.18;3.35;;;;;;;2.23;96.43;98317.50;10455039;28;20049;-72
2022/01/05 06:46:00;;;;;;;4.63;3.17;;;;;;;2.27;94.61;98339.00;10472482;28;20068;-72
2022/01/05 06:51:02;;;;;;;4.30;3.80;;;;;;;2.02;95.87;98352.56;10450842;28;20103;-73
2022/01/05 06:56:04;;;;;;;5.55;3.95;;;;;;;2.06;96.12;98360.28;10451644;28;20060;-72
2022/01/05 07:01:06;;;;;;;4.72;4.00;;;;;;;1.89;96.06;98379.66;10471032;28;20447;-73
2022/01/05 07:06:08;;;;;;;5.40;3.17;;;;;;;1.89;95.93;98387.44;10453330;28;20052;-74
2022/01/05 07:11:09;;;;;;;3.30;2.50;;;;;;;2.02;95.51;98391.44;10472453;28;20041;-73
2022/01/05 07:16:12;;;;;;;5.10;2.72;;;;;;;1.92;96.02;98407.25;10472911;28;20044;-73
2022/01/05 07:21:13;;;;;;;7.15;5.53;;;;;;;1.80;96.38;98405.78;10451503;28;20048;-72
2022/01/05 07:26:15;;;;;;;7.22;4.72;;;;;;;1.93;95.99;98404.59;10450806;28;20040;-73
2022/01/05 07:31:17;;;;;;;7.40;4.60;;;;;;;2.15;93.99;98423.09;10448141;28;20045;-72
2022/01/05 07:36:18;;;;;;;6.05;2.72;;;;;;;2.22;92.72;98429.84;10467199;28;20136;-73
2022/01/05 07:41:20;;;;;;;8.73;3.10;;;;;;;1.95;94.07;98444.31;10467648;28;20041;-73
2022/01/05 07:46:22;;;;;;;3.58;2.25;;;;;;;2.12;94.19;98448.25;10447945;28;20098;-73
2022/01/05 07:51:24;;;;;;;5.05;2.33;;;;;;;2.41;91.27;98460.53;10447833;28;20037;-73
2022/01/05 07:56:27;;;;;;;4.32;1.70;;;;;;;2.12;92.79;98474.16;10465166;28;20453;-73
2022/01/05 08:01:29;;;;;;;3.42;1.40;;;;;;;2.23;91.50;98485.16;10448213;28;20048;-72
2022/01/05 08:06:31;;;;;;;1.85;0.80;;;;;;;2.29;90.42;98492.78;10450190;28;20049;-72
2022/01/05 08:11:32;;;;;;;4.05;0.98;;;;;;;2.17;92.17;98508.59;10452353;28;20473;-72
2022/01/05 08:16:34;;;;;;;2.25;0.70;;;;;;;2.20;90.17;98513.72;10449154;28;20052;-73
2022/01/05 08:21:36;;;;;;;2.42;0.80;;;;;;;2.15;90.33;98515.56;10448654;28;20045;-72
2022/01/05 08:26:38;;;;;;;1.70;0.70;;;;;;;2.09;91.26;98526.09;10466979;28;20119;-74
2022/01/05 08:31:40;;;;;;;2.10;0.90;;;;;;;1.94;89.69;98535.88;10467195;28;20044;-73
2022/01/05 08:36:41;;;;;;;2.67;1.10;;;;;;;1.73;91.43;98557.06;10466456;28;20045;-73
2022/01/05 08:41:43;;;;;;;2.35;1.10;;;;;;;1.73;92.21;98546.69;10450502;28;20045;-74
2022/01/05 08:46:45;;;;;;;2.58;1.17;;;;;;;1.95;90.88;98550.56;10467174;28;20048;-75
2022/01/05 08:51:47;;;;;;;7.20;0.80;;;;;;;1.90;90.38;98551.50;10434129;28;20470;-75
2022/01/05 08:56:54;;;;;;;4.38;1.90;;;;;;;1.88;90.98;98542.94;10468816;28;20045;-74
2022/01/05 09:01:58;;;;;;;3.00;1.50;;;;;;;1.88;91.12;98553.31;10450532;28;20051;-75
2022/01/05 09:07:02;;;;;;;2.72;1.30;;;;;;;1.95;91.66;98573.03;10467357;28;20131;-74
2022/01/05 09:12:04;;;;;;;3.40;1.33;;;;;;;1.93;90.52;98578.22;10448015;28;20049;-74
2022/01/05 09:17:07;;;;;;;3.45;1.10;;;;;;;1.90;90.90;98590.38;10448643;28;20072;-74
2022/01/05 09:22:09;;;;;;;1.90;0.90;;;;;;;1.96;90.06;98605.81;10466955;28;20450;-74
2022/01/05 09:27:24;;;;;;;3.10;1.02;;;;;;;2.01;90.03;98604.00;10464564;28;20048;-75
2022/01/05 09:32:29;;;;;;;3.95;0.90;;;;;;;1.98;89.27;98617.84;10464532;28;20045;-75
2022/01/05 09:37:38;;;;;;;3.88;0.90;;;;;;;1.99;89.04;98618.69;10447158;28;20056;-74
2022/01/05 09:42:42;;;;;;;4.47;1.60;;;;;;;1.97;87.82;98612.72;10447210;28;20045;-75
2022/01/05 09:48:13;;;;;;;2.45;0.90;;;;;;;1.87;88.87;98606.84;10446208;28;20158;-75
2022/01/05 09:53:16;;;;;;;2.72;1.02;;;;;;;1.99;87.87;98606.63;10445514;28;20139;-76
2022/01/05 09:58:23;;;;;;;2.13;1.00;;;;;;;2.02;85.88;98597.91;10465531;28;20053;-74
2022/01/05 10:03:24;;;;;;;3.47;0.90;;;;;;;2.02;86.89;98608.28;10447388;28;20044;-74
2022/01/05 10:08:26;;;;;;;3.17;1.00;;;;;;;2.02;87.93;98618.66;10464794;28;20407;-74
2022/01/05 10:13:31;;;;;;;4.45;1.00;;;;;;;2.11;87.09;98615.88;10448731;28;20045;-74
2022/01/05 10:18:44;;;;;;;1.98;1.00;;;;;;;2.30;85.36;98603.38;10448641;28;20060;-75
2022/01/05 10:23:50;;;;;;;3.47;1.25;;;;;;;2.31;84.95;98593.88;10469528;28;20064;-75
2022/01/05 10:28:58;;;;;;;4.40;1.33;;;;;;;2.50;84.04;98595.16;10454493;28;20049;-77
2022/01/05 10:34:17;;;;;;;5.57;1.83;;;;;;;2.41;84.26;98608.34;10472881;28;20077;-75
2022/01/05 10:39:28;;;;;;;7.72;2.20;;;;;;;2.39;84.36;98607.50;10472742;28;20107;-75
2022/01/05 10:44:33;;;;;;;10.02;1.92;;;;;;;2.39;81.88;98618.75;10472530;28;20041;-77
2022/01/05 10:49:38;;;;;;;6.28;2.08;;;;;;;2.46;81.52;98617.72;10476361;28;20136;-76
2022/01/05 10:54:41;;;;;;;14.20;2.03;;;;;;;2.56;80.50;98607.16;10473075;23;20055;-71
2022/01/05 10:59:45;;;;;;;8.70;1.80;;;;;;;2.72;77.43;98617.16;10502871;28;20090;-71
2022/01/05 11:04:47;;;;;;;6.97;2.05;;;;;;;2.70;77.16;98625.84;10502763;28;20123;-71
2022/01/05 11:10:01;;;;;;;6.18;1.80;;;;;;;2.78;77.01;98622.19;10502382;28;20045;-72
2022/01/05 11:15:18;;;;;;;4.20;1.55;;;;;;;2.95;74.96;98621.81;10502588;28;20059;-71
2022/01/05 11:20:26;;;;;;;4.45;1.27;;;;;;;3.25;71.31;98627.16;10502317;28;20055;-72
2022/01/05 11:25:28;;;;;;;4.10;1.40;;;;;;;4.40;66.11;98614.50;10543195;28;20043;-72
2022/01/05 11:30:30;;;;;;;4.28;1.48;;;;;;;4.74;63.86;98603.94;10544769;28;20059;-72
2022/01/05 11:35:32;;;;;;;4.95;1.52;;;;;;;5.23;61.85;98599.75;10543242;28;20127;-72
2022/01/05 11:40:38;;;;;;;5.13;1.48;;;;;;;5.46;60.85;98600.72;10516931;28;20071;-72
2022/01/05 11:45:45;;;;;;;6.30;2.17;;;;;;;4.84;61.83;98601.03;10501783;28;20044;-71
2022/01/05 11:50:53;;;;;;;5.65;1.63;;;;;;;5.51;61.85;98602.28;10501715;28;20045;-72
2022/01/05 11:55:58;;;;;;;3.83;1.00;;;;;;;4.78;59.88;98599.44;10503288;28;20117;-72
2022/01/05 12:01:20;;;;;;;4.22;1.15;;;;;;;4.49;61.56;98602.97;10501463;28;20055;-72
2022/01/05 12:06:31;;;;;;;5.95;1.50;;;;;;;4.31;62.72;98596.56;10500515;28;20052;-73
2022/01/05 12:11:38;;;;;;;3.53;1.70;;;;;;;3.90;62.27;98610.75;10507166;28;20046;-71
2022/01/05 12:17:07;;;;;;;4.45;1.48;;;;;;;3.94;60.71;98597.63;10498950;28;20418;-71
2022/01/05 12:22:20;;;;;;;7.97;1.65;;;;;;;3.99;61.02;98584.50;10500189;28;20090;-71
2022/01/05 12:27:24;;;;;;;2.58;1.10;;;;;;;4.06;61.23;98593.81;10481925;28;20136;-72
2022/01/05 12:32:37;;;;;;;2.75;1.10;;;;;;;4.03;61.81;98573.09;10499500;28;20110;-72
2022/01/05 12:37:58;;;;;;;5.85;1.30;;;;;;;3.75;62.68;98589.44;10499142;28;20048;-72
2022/01/05 12:43:06;;;;;;;2.92;1.23;;;;;;;3.42;61.56;98596.41;10498825;28;20044;-73
2022/01/05 12:48:07;;;;;;;;;;;;;;;3.39;62.07;98583.50;10498828;28;20485;-72
2022/01/05 12:53:10;;;;;;;2.40;1.30;;;;;;;3.33;61.92;98588.00;10498816;28;19974;-73
2022/01/05 12:58:12;;;;;;;3.58;1.25;;;;;;;3.34;61.21;98595.75;10498716;28;20106;-73
2022/01/05 13:03:33;;;;;;;2.30;0.90;;;;;;;3.38;61.25;98594.78;10498539;28;20398;-72
2022/01/05 13:08:34;;;;;;;3.85;1.48;;;;;;;3.25;61.51;98593.41;10498972;28;20040;-71
2022/01/05 13:13:41;;;;;;;3.17;0.90;;;;;;;3.21;62.96;98594.34;10498408;28;20045;-71
2022/01/05 13:18:49;;;;;;;2.65;1.00;;;;;;;3.21;62.78;98594.34;10499554;28;20048;-72
2022/01/05 13:23:57;;;;;;;2.55;0.77;;;;;;;3.22;60.15;98581.31;10498528;28;20037;-73
2022/01/05 13:29:19;;;;;;;3.50;1.23;;;;;;;3.16;61.15;98578.03;10500323;28;20048;-73
2022/01/05 13:34:29;;;;;;;2.90;1.13;;;;;;;3.06;61.94;98597.34;10499146;28;20041;-72
2022/01/05 13:39:46;;;;;;;2.80;1.30;;;;;;;2.99;61.32;98599.22;10479592;28;20049;-72
2022/01/05 13:44:48;;;;;;;3.92;1.33;;;;;;;2.98;61.68;98597.53;10483515;28;20040;-72
2022/01/05 13:50:10;;;;;;;3.67;1.50;;;;;;;2.84;61.64;98582.28;10500387;28;20037;-71
2022/01/05 13:55:23;;;;;;;2.42;0.98;;;;;;;2.80;62.29;98588.44;10499026;28;20406;-73
2022/01/05 14:00:26;;;;;;;9.75;1.15;;;;;;;2.85;61.30;98611.69;10499205;28;20067;-74
2022/01/05 14:05:28;;;;;;;4.43;1.20;;;;;;;2.78;61.56;98619.59;10505132;28;20048;-72
2022/01/05 14:10:33;;;;;;;2.22;1.10;;;;;;;2.71;61.58;98630.16;10505320;28;20044;-72
2022/01/05 14:15:35;;;;;;;1.90;0.90;;;;;;;2.73;61.78;98641.34;10504277;28;20437;-73
2022/01/05 14:20:46;;;;;;;2.30;0.90;;;;;;;2.73;61.57;98654.31;10504713;28;20144;-73
2022/01/05 14:26:00;;;;;;;2.83;0.88;;;;;;;2.78;61.89;98642.09;10503639;28;20047;-72
2022/01/05 14:31:09;;;;;;;3.25;1.20;;;;;;;2.73;63.07;98637.00;10504496;28;20063;-72
2022/01/05 14:36:17;;;;;;;2.53;1.20;;;;;;;2.75;62.33;98640.44;10504700;28;20134;-72
2022/01/05 14:41:19;;;;;;;3.70;1.13;;;;;;;2.73;62.98;98641.34;10504071;28;20094;-72
2022/01/05 14:46:20;;;;;;;2.97;1.10;;;;;;;2.71;63.02;98641.41;10503622;28;20401;-72
2022/01/05 14:51:22;;;;;;;4.00;1.65;;;;;;;2.68;64.37;98638.84;10486295;28;20045;-72
2022/01/05 14:56:24;;;;;;;3.08;1.40;;;;;;;2.62;64.48;98638.16;10502595;28;20127;-72
2022/01/05 15:01:26;;;;;;;3.53;1.30;;;;;;;2.50;65.99;98652.22;10485197;28;20055;-72
2022/01/05 15:06:28;;;;;;;3.92;1.85;;;;;;;2.28;67.78;98651.81;10486507;28;20048;-74
2022/01/05 15:11:30;;;;;;;4.47;1.90;;;;;;;2.20;68.80;98651.13;10481591;28;20378;-73
2022/01/05 15:16:32;;;;;;;4.22;1.38;;;;;;;2.19;69.69;98649.44;10480361;28;20042;-72
2022/01/05 15:21:34;;;;;;;4.10;1.63;;;;;;;2.12;69.86;98650.41;10499051;28;20071;-72
2022/01/05 15:26:38;;;;;;;5.47;1.30;;;;;;;2.11;70.10;98646.97;10501445;28;20044;-72
2022/01/05 15:31:40;;;;;;;4.10;1.65;;;;;;;2.05;70.32;98654.88;10501787;28;20071;-72
2022/01/05 15:36:42;;;;;;;4.10;1.40;;;;;;;2.02;71.64;98673.06;10484033;28;20048;-72
2022/01/05 15:41:47;;;;;;;5.88;1.83;;;;;;;1.97;73.71;98691.31;10502518;28;20091;-72
2022/01/05 15:46:49;;;;;;;3.88;1.20;;;;;;;1.94;74.32;98699.13;10498357;28;20033;-72
2022/01/05 15:51:51;;;;;;;7.82;2.45;;;;;;;1.92;75.01;98700.91;10497945;28;20044;-72
2022/01/05 15:57:11;;;;;;;4.65;1.40;;;;;;;2.01;74.91;98703.31;10498414;28;20424;-71
2022/01/05 16:02:13;;;;;;;3.50;1.58;;;;;;;2.11;73.86;98690.19;10501431;28;20037;-72
2022/01/05 16:07:17;;;;;;;6.03;1.50;;;;;;;2.18;73.10;98691.78;10501885;28;20049;-72
2022/01/05 16:12:18;;;;;;;4.18;1.15;;;;;;;2.26;72.08;98692.50;10501404;28;20124;-73
2022/01/05 16:17:20;;;;;;;5.22;1.27;;;;;;;2.30;72.33;98699.31;10503172;28;20421;-71
2022/01/05 16:22:22;;;;;;;2.67;1.00;;;;;;;2.46;71.61;98705.91;10483939;28;20041;-73
2022/01/05 16:27:23;;;;;;;3.75;1.15;;;;;;;2.54;71.74;98721.31;10497959;28;20048;-72
2022/01/05 16:32:25;;;;;;;3.40;1.30;;;;;;;2.62;71.26;98724.63;10498507;28;20040;-73
2022/01/05 16:37:26;;;;;;;3.28;1.10;;;;;;;2.49;72.17;98712.78;10499441;28;20044;-72
2022/01/05 16:42:28;;;;;;;3.58;1.30;;;;;;;2.55;72.07;98728.22;10495251;28;20120;-72
2022/01/05 16:47:30;;;;;;;4.45;1.35;;;;;;;2.53;71.82;98719.63;10495274;28;20040;-72
2022/01/05 16:52:52;;;;;;;3.33;1.13;;;;;;;2.62;71.16;98718.56;10494523;28;20502;-73
2022/01/05 17:03:14;;;;;;;3.60;1.50;;;;;;;2.55;71.38;98719.56;10532155;28;20126;-74
2022/01/05 17:08:17;;;;;;;4.82;1.77;;;;;;;2.68;70.60;98721.88;10549331;28;20059;-74
2022/01/05 17:13:19;;;;;;;2.47;1.08;;;;;;;2.68;70.66;98723.63;10550384;28;20047;-75
2022/01/05 17:18:22;;;;;;;2.97;1.75;;;;;;;2.62;71.23;98731.56;10557283;28;20039;-75
2022/01/05 17:23:24;;;;;;;3.33;1.20;;;;;;;2.70;70.64;98732.22;10531324;28;20044;-75
2022/01/05 17:28:25;;;;;;;2.00;1.00;;;;;;;2.87;69.51;98734.47;10529861;28;20098;-75
2022/01/05 17:33:27;;;;;;;2.25;1.10;;;;;;;2.91;69.67;98743.91;10550835;28;20040;-75
2022/01/05 17:38:29;;;;;;;3.75;1.02;;;;;;;3.07;68.17;98753.06;10556553;28;20059;-75
2022/01/05 17:43:30;;;;;;;3.90;1.27;;;;;;;3.04;68.28;98745.34;10539521;28;20040;-74
2022/01/05 17:48:32;;;;;;;3.17;1.27;;;;;;;3.09;68.36;98747.84;10538857;28;20044;-74
2022/01/05 17:53:36;;;;;;;2.33;0.90;;;;;;;3.17;68.63;98751.13;10537175;28;20040;-73
2022/01/05 17:58:38;;;;;;;2.63;0.85;;;;;;;3.16;68.42;98765.84;10558006;28;20044;-76
2022/01/05 18:03:40;;;;;;;1.90;0.80;;;;;;;3.23;67.66;98759.63;10560384;28;20116;-73
2022/01/05 18:08:44;;;;;;;1.65;0.95;;;;;;;3.22;68.19;98775.22;10557476;28;20059;-75
2022/01/05 18:13:46;;;;;;;1.10;0.73;;;;;;;3.30;68.50;98773.31;10584721;28;20112;-75
2022/01/05 18:18:47;;;;;;;1.52;0.90;;;;;;;3.21;68.46;98778.72;10598624;28;20539;-74
2022/01/05 18:23:49;;;;;;;3.15;1.17;;;;;;;3.24;68.91;98773.47;10598039;28;20051;-75
2022/01/05 18:28:54;;;;;;;2.50;1.10;;;;;;;3.22;68.76;98783.03;10581841;28;20119;-73
2022/01/05 18:33:55;;;;;;;1.48;1.15;;;;;;;3.24;68.77;98783.88;10567161;28;20052;-74
2022/01/05 18:38:58;;;;;;;2.03;0.80;;;;;;;3.23;68.78;98780.41;10553825;28;20446;-75
2022/01/05 18:44:21;;;;;;;2.85;0.70;;;;;;;3.26;68.65;98779.47;10552861;28;20064;-75
2022/01/05 18:49:23;;;;;;;2.35;1.30;;;;;;;3.23;69.24;98783.00;10537109;28;20106;-74
2022/01/05 18:54:25;;;;;;;1.13;0.70;;;;;;;3.25;69.17;98788.16;10554934;28;20040;-75
2022/01/05 18:59:26;;;;;;;1.42;1.10;;;;;;;3.18;68.98;98795.22;10553347;28;20072;-73
2022/01/05 19:04:28;;;;;;;2.22;0.88;;;;;;;3.16;68.77;98809.13;10535847;28;20040;-74
2022/01/05 19:09:29;;;;;;;2.95;0.85;;;;;;;3.18;69.45;98803.00;10579761;28;20485;-74
2022/01/05 19:14:31;;;;;;;2.05;0.90;;;;;;;3.11;69.44;98800.59;10577700;28;20063;-74
2022/01/05 19:19:36;;;;;;;2.17;0.93;;;;;;;3.14;69.24;98803.97;10596299;28;20048;-74
2022/01/05 19:24:38;;;;;;;2.10;0.90;;;;;;;3.19;69.51;98822.91;10581916;28;20054;-73
2022/01/05 19:29:40;;;;;;;1.73;0.90;;;;;;;3.14;69.63;98821.28;10598186;28;20073;-75
2022/01/05 19:34:44;;;;;;;1.08;0.80;;;;;;;3.23;69.64;98828.88;10580095;28;20044;-74
2022/01/05 19:39:47;;;;;;;1.60;0.82;;;;;;;3.27;69.80;98828.78;10587328;28;20067;-76
2022/01/05 19:44:49;;;;;;;0.82;0.80;;;;;;;3.32;69.71;98831.31;10552980;28;20070;-74
2022/01/05 19:49:54;;;;;;;3.17;0.98;;;;;;;3.32;69.59;98841.69;10592353;28;20051;-75
2022/01/05 19:55:04;;;;;;;1.45;0.80;;;;;;;3.31;69.80;98834.75;10576383;28;20043;-74
2022/01/05 20:00:09;;;;;;;2.55;1.15;;;;;;;3.31;70.76;98837.34;10593697;28;20084;-75
2022/01/05 20:05:13;;;;;;;2.63;0.82;;;;;;;3.26;70.96;98836.59;10595684;28;20039;-75
2022/01/05 20:10:15;;;;;;;2.03;1.17;;;;;;;3.27;70.78;98835.72;10576278;28;20059;-73
2022/01/05 20:15:17;;;;;;;2.40;0.93;;;;;;;3.36;70.00;98842.44;10577725;28;20109;-75
2022/01/05 20:20:27;;;;;;;1.60;0.70;;;;;;;3.38;70.41;98838.94;10592045;28;20440;-75
2022/01/05 20:25:28;;;;;;;1.33;0.80;;;;;;;3.48;69.30;98849.97;10592408;28;20044;-74
2022/01/05 20:30:30;;;;;;;2.72;0.98;;;;;;;3.49;70.81;98860.34;10587896;28;20067;-74
2022/01/05 20:35:37;;;;;;;1.10;0.73;;;;;;;3.43;71.94;98855.28;10589939;28;20097;-74
2022/01/05 20:40:42;;;;;;;1.40;0.80;;;;;;;3.47;71.20;98875.13;10590815;28;20439;-75
2022/01/05 20:45:47;;;;;;;1.42;0.90;;;;;;;3.42;71.44;98866.56;10574705;28;20385;-75
2022/01/05 20:50:51;;;;;;;1.58;0.95;;;;;;;3.47;71.37;98871.66;10590988;28;20040;-75
2022/01/05 20:55:53;;;;;;;1.92;0.93;;;;;;;3.48;71.85;98884.63;10591052;28;20075;-75
2022/01/05 21:00:56;;;;;;;4.82;2.47;;;;;;;3.47;72.04;98893.31;10592175;28;20101;-74
2022/01/05 21:05:58;;;;;;;1.63;0.95;;;;;;;3.41;73.75;98897.75;10571347;28;20112;-75
2022/01/05 21:10:59;;;;;;;2.75;1.00;;;;;;;3.31;74.68;98891.06;10572480;28;20054;-75
2022/01/05 21:16:02;;;;;;;1.27;0.80;;;;;;;3.19;75.98;98892.19;10573517;28;20040;-75
2022/01/05 21:21:04;;;;;;;2.22;1.00;;;;;;;3.04;77.93;98901.09;10592079;28;20123;-75
2022/01/05 21:26:05;;;;;;;1.90;1.00;;;;;;;2.87;81.28;98885.84;10555018;28;20547;-75
2022/01/05 21:31:07;;;;;;;2.05;0.88;;;;;;;2.77;80.76;98879.13;10571146;28;20067;-74
2022/01/05 21:36:10;;;;;;;1.65;1.15;;;;;;;2.77;81.59;98892.09;10590508;28;20134;-75
2022/01/05 21:41:12;;;;;;;2.08;1.15;;;;;;;2.92;79.90;98894.44;10573726;28;20051;-75
2022/01/05 21:46:14;;;;;;;1.90;1.10;;;;;;;2.92;79.74;98911.72;10591541;28;20039;-76
2022/01/05 21:51:17;;;;;;;1.85;1.05;;;;;;;2.94;79.37;98920.34;10590066;28;20097;-75
2022/01/05 21:56:18;;;;;;;2.03;1.10;;;;;;;2.97;80.20;98928.94;10573345;28;20039;-75
2022/01/05 22:01:20;;;;;;;3.17;1.77;;;;;;;2.84;83.12;98919.66;10573776;28;20048;-76
2022/01/05 22:06:22;;;;;;;2.38;1.90;;;;;;;2.73;84.87;98914.66;10593794;28;20075;-75
2022/01/05 22:11:23;;;;;;;2.70;1.40;;;;;;;2.71;84.28;98929.41;10591671;28;20412;-74
2022/01/05 22:16:25;;;;;;;2.65;1.50;;;;;;;2.80;83.83;98920.59;10575458;28;20561;-74
2022/01/05 22:21:27;;;;;;;2.30;1.38;;;;;;;2.96;81.88;98929.81;10595277;28;20117;-75
2022/01/05 22:26:28;;;;;;;3.60;1.77;;;;;;;3.01;80.92;98940.97;10604253;28;20039;-75
2022/01/05 22:31:30;;;;;;;3.95;1.20;;;;;;;2.98;80.51;98938.44;10600005;28;20047;-75
2022/01/05 22:36:32;;;;;;;2.33;1.30;;;;;;;3.12;79.81;98947.69;10599832;28;20048;-75
2022/01/05 22:41:34;;;;;;;3.97;1.35;;;;;;;3.16;79.28;98954.56;10599994;28;20047;-74
2022/01/05 22:46:36;;;;;;;3.53;1.58;;;;;;;3.15;79.86;98964.09;10581542;28;20549;-75
2022/01/05 22:51:38;;;;;;;3.22;1.10;;;;;;;3.17;80.02;98954.50;10600134;28;20047;-75
2022/01/05 22:56:39;;;;;;;3.63;1.90;;;;;;;3.27;79.86;98974.22;10578098;22;20052;-72
2022/01/05 23:01:41;;;;;;;3.75;1.63;;;;;;;3.26;81.26;98967.31;10501347;28;20052;-71
2022/01/05 23:06:43;;;;;;;2.28;1.23;;;;;;;3.30;81.63;98970.72;10502295;28;20040;-73
2022/01/05 23:11:45;;;;;;;2.42;1.25;;;;;;;3.40;80.46;98968.78;10502530;28;20448;-72
2022/01/05 23:16:46;;;;;;;2.05;1.17;;;;;;;3.29;81.16;98977.66;10502134;28;20449;-72
2022/01/05 23:21:48;;;;;;;2.42;1.50;;;;;;;3.27;81.14;98978.56;10501989;28;20052;-71
2022/01/05 23:26:50;;;;;;;3.20;1.20;;;;;;;3.29;80.93;98980.25;10501871;28;20560;-71
2022/01/05 23:31:51;;;;;;;2.25;1.23;;;;;;;3.22;80.97;98981.25;10501514;28;20056;-71
2022/01/05 23:36:53;;;;;;;1.83;1.05;;;;;;;3.19;81.41;98985.66;10499416;28;20049;-71
2022/01/05 23:41:56;;;;;;;2.10;1.30;;;;;;;3.13;82.07;98980.56;10501946;28;20052;-72
2022/01/05 23:46:57;;;;;;;2.30;1.35;;;;;;;3.09;82.15;98992.75;10501489;28;20049;-72
2022/01/05 23:51:59;;;;;;;4.22;1.65;;;;;;;3.05;82.57;98991.06;10500883;28;20497;-71
2022/01/05 23:57:01;;;;;;;3.10;1.63;;;;;;;2.94;83.41;99012.06;10500272;28;20045;-71
